Terminal Aerodrome Forecast
Issued by NWS

Home | Current Version | Previous Version | Text Only | Print | Product List | Glossary On
Versions: 1 2 3 4 5 6 7 8 9 10 11 12 13 14 15 16 17 18 19
000
FTUS46 KSGX 181144
TAFCRQ
TAF
KCRQ 181144Z 1812/1912 VRB05KT P6SM SCT022 BKN200
      TEMPO 1812/1815 BKN018
     FM182100 25007KT P6SM FEW015 BKN040
     FM190600 18007KT P6SM VCSH BKN025 OVC035
     FM191100 16013G20KT 4SM RA BR BKN015 OVC025=

USA.gov is the U.S. government's official web portal to all federal, state and local government web resources and services.